x

Onslow Bay Outer, Nc (41036) Wave Buoy

6:50pm - Sat 27th Dec 2014 All times are EST. -5 hours from GMT.

  • Sig Wave height 2.6ft
  • Swell Direction
  • Peak Period 15s
  • Average Period 9s
  • Wind
    2mph
  • Sea Temp 61°f
  • Air Temp 60°f
  • Sea Pressure 1025.6mb
  • Onslow Bay Outer, Nc
  • Onslow Bay Outer, Nc

More Historic Weather Station data

Upgrade to MSW Pro to gain access to the past 30 days of data for over 8000 Wavebouys and Weather Stations around the globe.

Join Pro

Comparision Forecast

View Surf forecast
   
Sat 12/27 6:50pm 2.5ft 15s 9s 2
mph
1025.6mb 61f 60f
6:20pm  -   -   -   -  2 mph 1025.6mb 61f 60f
5:50pm 2.5ft 16s 9s  -  2 mph 1025.6mb 61f 60f
5:20pm  -   -   -   -  mph 1025.2mb 61f 60f
4:50pm 2.5ft 16s 9s  -  mph 1025.2mb 62f 61f
4:20pm  -   -   -  2 4 mph 1024.9mb 62f 60f
3:50pm 2.5ft 16s 9s 2 4 mph 1025mb 62f 61f
3:20pm  -   -   -  7 9 mph 1024.7mb 62f 60f
2:50pm 2ft 16s 8s 9 11 mph 1024.6mb 62f 59f
2:20pm  -   -   -  4
mph
1024.9mb 62f 59f
1:50pm 2.5ft 17s 8s 2 4 mph 1025.4mb 62f 58f
1:20pm  -   -   -  4 7 mph 1025.8mb 62f 57f
12:50pm 2ft 16s 8s 4 7 mph 1026.1mb 62f 58f
12:20pm  -   -   -  4
mph
1026.6mb 62f 58f
11:50am 2ft 17s 8s 2 4 mph 1026.9mb 61f 58f
11:20am  -   -   -  2 4 mph 1027.6mb 61f 58f
10:50am 2ft 17s 8s 4
mph
1028.2mb 61f 58f
10:20am  -   -   -  7 9 mph 1028.3mb 61f 59f
9:50am 2ft 17s 7s 7 9 mph 1028.3mb 61f 59f
9:20am  -   -   -  7 9 mph 1027.9mb 61f 58f
8:50am 2ft 8s 8s 9
mph
1027.4mb 61f 58f
8:20am  -   -   -  4 7 mph 1027.6mb 61f 58f
7:50am 2ft 7s 7s 2 4 mph 1027.4mb 61f 58f
7:20am  -   -   -  4 7 mph 1027.1mb 61f 57f
6:50am 2ft 9s 7s 7
mph
1026.6mb 60f 57f
6:20am  -   -   -  4 7 mph 1026.4mb 60f 57f
5:50am 2ft 12s 7s 4 7 mph 1026.2mb 60f 57f
5:20am  -   -   -  4 7 mph 1026.2mb 60f 57f
4:50am 2ft 7s 7s 7 9 mph 1026mb 60f 58f
4:20am  -   -   -  4
mph
1026.1mb 60f 57f
3:50am 2ft 8s 7s 4 7 mph 1026.1mb 60f 58f
3:20am  -   -   -  4 7 mph 1026.1mb 60f 58f
2:50am 2ft 7s 7s 9 11 mph 1026.2mb 60f 58f
2:20am  -   -   -  7 9 mph 1026.3mb 60f 58f
1:50am 2ft 7s 7s 2 4 mph 1026.4mb 60f 58f
1:20am  -   -   -  2
mph
1026.4mb 61f 58f
12:50am 2ft 9s 7s 2 4 mph 1026.3mb 61f 58f
12:20am  -   -   -  4 7 mph 1026.5mb 61f 58f
Fri 12/26 11:50pm 2ft 7s 7s 4 7 mph 1026.7mb 61f 58f
11:20pm  -   -   -  2 4 mph 1027.4mb 61f 58f
10:50pm 2ft 7s 7s 4 7 mph 1027.5mb 61f 57f
10:20pm  -   -   -  4 7 mph 1027.6mb 61f 58f
9:50pm 2ft 7s 7s 4 7 mph 1027.4mb 61f 58f
9:20pm  -   -   -  4
mph
1027.1mb 61f 58f
8:50pm 2.5ft 8s 7s 2 4 mph 1027mb 61f 57f
8:20pm  -   -   -  2 4 mph 1027mb 60f 57f
7:50pm 2ft 7s 6s 2
mph
1027.1mb 60f 57f
7:20pm  -   -   -   -  2 mph 1026.9mb 60f 57f
6:50pm 2ft 7s 6s 2 4 mph 1026.9mb 61f 57f
6:20pm  -   -   -  4 7 mph 1026.8mb 61f 57f
5:50pm 2ft 7s 6s 4 7 mph 1026.6mb 61f 57f
5:20pm  -   -   -  4 7 mph 1026.4mb 61f 57f
4:50pm 2ft 7s 6s 7
mph
1026.6mb 61f 57f
4:20pm  -   -   -  7 9 mph 1026.1mb 61f 56f
3:50pm 2ft 7s 6s 7 9 mph 1025.6mb 61f 56f
3:20pm  -   -   -  9
mph
1025.6mb 61f 56f
2:50pm 2ft 7s 5s 9 11 mph 1025.7mb 61f 56f
2:20pm  -   -   -  9 11 mph 1025.9mb 61f 56f
1:50pm 2.5ft 7s 6s 9 11 mph 1026mb 60f 56f
1:20pm  -   -   -  9 11 mph 1026mb 60f 56f
12:50pm 2.5ft 7s 6s 9 11 mph 1026.2mb 60f 56f
12:20pm  -   -   -  9 11 mph 1026.9mb 60f 56f
11:50am 2ft 7s 5s 7 9 mph 1027.5mb 60f 56f
11:20am  -   -   -  9 11 mph 1027.7mb 60f 56f
10:50am 2.5ft 8s 5s 7 9 mph 1027.9mb 60f 55f
10:20am  -   -   -  7 9 mph 1028.1mb 60f 55f
9:50am 2.5ft 7s 5s 7 11 mph 1028.1mb 60f 55f
9:20am  -   -   -  9 11 mph 1027.8mb 60f 55f
8:50am 2.5ft 7s 5s 9 11 mph 1027.3mb 60f 55f
8:20am  -   -   -  9 13 mph 1027mb 60f 56f
7:50am 2.5ft 7s 5s 9 11 mph 1026.9mb 60f 56f
7:20am  -   -   -  9 11 mph 1026.4mb 60f 56f
6:50am 2.5ft 7s 5s 9 11 mph 1026.2mb 60f 56f
6:20am  -   -   -  9 11 mph 1025.7mb 60f 56f
5:50am 3ft 7s 5s 7 11 mph 1025.5mb 60f 56f
5:20am  -   -   -  9 11 mph 1025.3mb 60f 56f
4:50am 3.5ft 7s 5s 9 11 mph 1025.1mb 60f 56f
4:20am  -   -   -  9 11 mph 1025mb 60f 56f
3:50am 3.5ft 8s 5s 11
mph
1025.2mb 60f 56f
3:20am  -   -   -  11 13 mph 1025.3mb 60f 56f
2:50am 3ft 8s 5s 11 13 mph 1025mb 60f 56f
2:20am  -   -   -  13 16 mph 1024.6mb 60f 56f
1:50am 3.5ft 8s 5s 13 16 mph 1024.5mb 60f 56f
1:20am  -   -   -  13 16 mph 1024.3mb 60f 56f
12:50am 3.5ft 9s 5s 13 18 mph 1024.3mb 60f 56f
12:20am  -   -   -  13 18 mph 1024.4mb 60f 57f
Thu 12/25 11:50pm 3.5ft 8s 6s 13 18 mph 1024.3mb 60f 57f
11:20pm  -   -   -  13 16 mph 1024.2mb 60f 57f
10:50pm 3.5ft 7s 5s 13 16 mph 1024.3mb 60f 57f
10:20pm  -   -   -  13 16 mph 1024.2mb 60f 58f
9:50pm 4ft 8s 6s 11 13 mph 1024.1mb 60f 58f
9:20pm  -   -   -  7 9 mph 1024mb 60f 58f
8:50pm 4ft 7s 6s 9 11 mph 1023.7mb 60f 58f
8:20pm  -   -   -  9
mph
1023.4mb 60f 58f
7:50pm 4.5ft 8s 6s 9 11 mph 1022.7mb 60f 58f
7:20pm  -   -   -  7 9 mph 1022.3mb 60f 58f
6:50pm 4.5ft 8s 6s 9 11 mph 1022.2mb 60f 58f
6:20pm  -   -   -  9 11 mph 1021.6mb 60f 57f
5:50pm 5ft 8s 6s 11 13 mph 1021.1mb 60f 57f
5:20pm  -   -   -  11 13 mph 1020.6mb 60f 57f
4:50pm 5ft 8s 6s 11 13 mph 1020.1mb 60f 57f
4:20pm  -   -   -  13 16 mph 1019.9mb 60f 57f
3:50pm 5.5ft 8s 6s 13 18 mph 1019.5mb 60f 57f
3:20pm  -   -   -  16 18 mph 1019.3mb 60f 56f
2:50pm 5.5ft 9s 6s 13 16 mph 1018.8mb 60f 56f
2:20pm  -   -   -  13 18 mph 1018.1mb 60f 56f
1:50pm 5.5ft 8s 5s 16 18 mph 1017.7mb 60f 55f
1:20pm  -   -   -  18 20 mph 1017.6mb 60f 55f
12:50pm 6ft 8s 5s 18 22 mph 1017.5mb 60f 56f
12:20pm  -   -   -  18 22 mph 1017.8mb 60f 56f
11:50am 6.5ft 8s 5s 22 27 mph 1017.9mb 60f 56f
11:20am  -   -   -  22 29 mph 1017.4mb 60f 56f
10:50am 6ft 7s 5s 20 25 mph 1017.3mb 60f 57f
10:20am  -   -   -  25 31 mph 1016.9mb 60f 57f
9:50am 6.5ft 7s 6s 25 34 mph 1016.4mb 60f 58f
9:20am  -   -   -  22 29 mph 1015.3mb 60f 59f
8:50am 6.5ft 7s 6s 22 25 mph 1014.7mb 60f 60f
8:20am  -   -   -  20 25 mph 1014.2mb 60f 60f
7:50am 7ft 8s 6s 22 27 mph 1013.4mb 60f 61f
7:20am  -   -   -  22 27 mph 1012.3mb 60f 61f
6:50am 7ft 8s 6s 20 25 mph 1011.5mb 60f 61f
6:20am  -   -   -  22 27 mph 1010.4mb 60f 62f
5:50am 7ft 8s 6s 22 27 mph 1010.2mb 60f 63f
5:20am  -   -   -  18 22 mph 1009.8mb 60f 63f
4:50am 7ft 8s 6s 18 20 mph 1009.3mb 60f 62f
4:20am  -   -   -  13 16 mph 1008.7mb 60f 62f
3:50am 6.5ft 8s 6s 16 18 mph 1008.7mb 60f 62f
3:20am  -   -   -  18 22 mph 1008.9mb 60f 62f
2:50am 7ft 8s 6s 18 22 mph 1008.4mb 60f 63f
2:20am  -   -   -  20 22 mph 1008.3mb 60f 64f
1:50am 7ft 8s 6s 16 20 mph 1008.3mb 60f 64f
1:20am  -   -   -  13 16 mph 1008.3mb 60f 64f
12:50am 8ft 8s 6s 16 18 mph 1008mb 60f 65f
12:20am  -   -   -  18 20 mph 1007.6mb 60f 66f
Wed 12/24 11:50pm 6.5ft 8s 6s 20 22 mph 1007.7mb 60f 67f
11:20pm  -   -   -  18 22 mph 1007.9mb 60f 67f
10:50pm 7ft 8s 6s 18 20 mph 1007.9mb 60f 67f
10:20pm  -   -   -  22 25 mph 1008.1mb 60f 69f
9:50pm 7.5ft 9s 6s 16 20 mph 1008.5mb 60f 67f
9:20pm  -   -   -  11 16 mph 1009mb 60f 67f
8:50pm 8ft 8s 6s 13 20 mph 1009.1mb 60f 66f
8:20pm  -   -   -  9 11 mph 1009.5mb 60f 65f
7:50pm 8ft 8s 6s 9
mph
1010mb 60f 64f
7:20pm  -   -   -  9 11 mph 1010.1mb 60f 64f
6:50pm 8ft 8s 6s 9 11 mph 1010.3mb 60f 64f
6:20pm  -   -   -  16 22 mph 1010.1mb 60f 67f
5:50pm 9ft 8s 6s 16 18 mph 1009.6mb 60f 67f
5:20pm  -   -   -  16 18 mph 1009.8mb 60f 67f
4:50pm 9.5ft 8s 6s 18 22 mph 1009.6mb 60f 67f
4:20pm  -   -   -  20 22 mph 1009.3mb 60f 68f
3:50pm 8.5ft 8s 6s 20 22 mph 1009.3mb 60f 68f
3:20pm  -   -   -  20 22 mph 1009.1mb 60f 68f
2:50pm 8.5ft 8s 6s 22 25 mph 1009mb 60f 69f
2:20pm  -   -   -  20 25 mph 1009.4mb 60f 69f
1:50pm 8ft 8s 6s 20 25 mph 1009.6mb 60f 68f
1:20pm  -   -   -  20 25 mph 1009.6mb 60f 68f
12:50pm 8ft 7s 6s 22 27 mph 1009.4mb 60f 69f
12:20pm  -   -   -  22 27 mph 1010.1mb 60f 69f
11:50am 8ft 8s 6s 20 22 mph 1010.5mb 60f 68f
11:20am  -   -   -  20 22 mph 1011.2mb 60f 68f
10:50am 7.5ft 7s 6s 20 22 mph 1011.7mb 60f 68f
10:20am  -   -   -  20 22 mph 1011.7mb 60f 68f
9:50am 7ft 7s 5s 20 22 mph 1011.9mb 61f 68f
9:20am  -   -   -  20 22 mph 1012mb 61f 68f
8:50am 6ft 6s 5s 20 22 mph 1012.2mb 61f 69f
8:20am  -   -   -  18 20 mph 1012.3mb 61f 68f
7:50am 5ft 6s 5s 20 22 mph 1012.3mb 61f 68f
7:20am  -   -   -  20 22 mph 1012.1mb 61f 69f
6:50am 4.5ft 6s 5s 20 25 mph 1011.6mb 61f 69f
6:20am  -   -   -  20 22 mph 1011.3mb 61f 68f
5:50am 4ft 6s 5s 20 22 mph 1011.2mb 61f 68f
5:20am  -   -   -  18 20 mph 1011.6mb 61f 67f
4:50am 3.5ft 6s 5s 13 16 mph 1011.9mb 61f 67f
4:20am  -   -   -  11
mph
1012.9mb 61f 67f
3:50am 3.5ft 6s 5s 11 13 mph 1013.6mb 61f 67f
3:20am  -   -   -  13 25 mph 1013.9mb 61f 68f
2:50am 3.5ft 6s 5s 7 9 mph 1014.2mb 61f 65f
2:20am  -   -   -  11
mph
1014.2mb 61f 65f
1:50am 3.5ft 7s 5s 9 11 mph 1014.4mb 61f 65f
1:20am  -   -   -  11 16 mph 1014.5mb 61f 65f
12:50am 3.5ft 7s 5s 4 9 mph 1014.8mb 61f 66f